sensor_id;sensor_type;location;lat;lon;timestamp;temperature;humidity
42201;DHT22;27869;51.442;7.540;2022-12-07T00:01:41;4.60;99.90
42201;DHT22;27869;51.442;7.540;2022-12-07T00:04:11;4.60;99.90
42201;DHT22;27869;51.442;7.540;2022-12-07T00:06:40;4.60;99.90
42201;DHT22;27869;51.442;7.540;2022-12-07T00:09:11;4.70;99.90
42201;DHT22;27869;51.442;7.540;2022-12-07T00:11:38;4.70;99.90
42201;DHT22;27869;51.442;7.540;2022-12-07T00:14:08;4.70;99.90
42201;DHT22;27869;51.442;7.540;2022-12-07T00:16:36;4.70;99.90
42201;DHT22;27869;51.442;7.540;2022-12-07T00:19:04;4.70;99.90
42201;DHT22;27869;51.442;7.540;2022-12-07T00:21:32;4.70;99.90
42201;DHT22;27869;51.442;7.540;2022-12-07T00:24:02;4.80;99.90
42201;DHT22;27869;51.442;7.540;2022-12-07T00:26:30;4.70;99.90
42201;DHT22;27869;51.442;7.540;2022-12-07T00:29:00;4.70;99.90
42201;DHT22;27869;51.442;7.540;2022-12-07T00:31:28;4.70;99.90
42201;DHT22;27869;51.442;7.540;2022-12-07T00:33:57;4.70;99.90
42201;DHT22;27869;51.442;7.540;2022-12-07T00:36:25;4.70;99.90
42201;DHT22;27869;51.442;7.540;2022-12-07T00:38:52;4.70;99.90
42201;DHT22;27869;51.442;7.540;2022-12-07T00:41:23;4.80;99.90
42201;DHT22;27869;51.442;7.540;2022-12-07T00:43:50;4.80;99.90
42201;DHT22;27869;51.442;7.540;2022-12-07T00:46:18;4.80;99.90
42201;DHT22;27869;51.442;7.540;2022-12-07T00:48:45;4.80;99.90
42201;DHT22;27869;51.442;7.540;2022-12-07T00:51:14;4.80;99.90
42201;DHT22;27869;51.442;7.540;2022-12-07T00:53:41;4.80;99.90
42201;DHT22;27869;51.442;7.540;2022-12-07T00:56:09;4.80;99.90
42201;DHT22;27869;51.442;7.540;2022-12-07T00:58:37;4.80;99.90
42201;DHT22;27869;51.442;7.540;2022-12-07T01:01:06;4.80;99.90
42201;DHT22;27869;51.442;7.540;2022-12-07T01:03:34;4.80;99.90
42201;DHT22;27869;51.442;7.540;2022-12-07T01:06:03;4.90;99.90
42201;DHT22;27869;51.442;7.540;2022-12-07T01:08:30;4.90;99.90
42201;DHT22;27869;51.442;7.540;2022-12-07T01:10:58;4.90;99.90
42201;DHT22;27869;51.442;7.540;2022-12-07T01:13:26;4.90;99.90
42201;DHT22;27869;51.442;7.540;2022-12-07T01:15:57;4.90;99.90
42201;DHT22;27869;51.442;7.540;2022-12-07T01:18:25;4.90;99.90
42201;DHT22;27869;51.442;7.540;2022-12-07T01:20:59;4.90;99.90
42201;DHT22;27869;51.442;7.540;2022-12-07T01:23:27;4.90;99.90
42201;DHT22;27869;51.442;7.540;2022-12-07T01:25:55;4.90;99.90
42201;DHT22;27869;51.442;7.540;2022-12-07T01:28:22;4.90;99.90
42201;DHT22;27869;51.442;7.540;2022-12-07T01:31:00;4.90;99.90
42201;DHT22;27869;51.442;7.540;2022-12-07T01:33:29;4.90;99.90
42201;DHT22;27869;51.442;7.540;2022-12-07T01:36:01;4.90;99.90
42201;DHT22;27869;51.442;7.540;2022-12-07T01:38:29;4.90;99.90
42201;DHT22;27869;51.442;7.540;2022-12-07T01:40:56;4.90;99.90
42201;DHT22;27869;51.442;7.540;2022-12-07T01:43:25;4.90;99.90
42201;DHT22;27869;51.442;7.540;2022-12-07T01:45:53;4.90;99.90
42201;DHT22;27869;51.442;7.540;2022-12-07T01:48:24;4.90;99.90
42201;DHT22;27869;51.442;7.540;2022-12-07T01:50:54;4.90;99.90
42201;DHT22;27869;51.442;7.540;2022-12-07T01:53:25;4.90;99.90
42201;DHT22;27869;51.442;7.540;2022-12-07T01:55:54;4.90;99.90
42201;DHT22;27869;51.442;7.540;2022-12-07T01:58:22;4.90;99.90
42201;DHT22;27869;51.442;7.540;2022-12-07T02:00:50;5.00;99.90
42201;DHT22;27869;51.442;7.540;2022-12-07T02:03:21;5.00;99.90
42201;DHT22;27869;51.442;7.540;2022-12-07T02:05:50;4.90;99.90
42201;DHT22;27869;51.442;7.540;2022-12-07T02:08:18;5.00;99.90
42201;DHT22;27869;51.442;7.540;2022-12-07T02:10:45;5.00;99.90
42201;DHT22;27869;51.442;7.540;2022-12-07T02:13:14;5.00;99.90
42201;DHT22;27869;51.442;7.540;2022-12-07T02:15:59;5.00;99.90
42201;DHT22;27869;51.442;7.540;2022-12-07T02:18:36;5.00;99.90
42201;DHT22;27869;51.442;7.540;2022-12-07T02:21:09;5.00;99.90
42201;DHT22;27869;51.442;7.540;2022-12-07T02:23:56;5.00;99.90
42201;DHT22;27869;51.442;7.540;2022-12-07T02:26:55;5.00;99.90
42201;DHT22;27869;51.442;7.540;2022-12-07T02:29:33;5.00;99.90
42201;DHT22;27869;51.442;7.540;2022-12-07T02:32:07;5.00;99.90
42201;DHT22;27869;51.442;7.540;2022-12-07T02:34:42;5.00;99.90
42201;DHT22;27869;51.442;7.540;2022-12-07T02:37:16;5.00;99.90
42201;DHT22;27869;51.442;7.540;2022-12-07T02:39:47;5.00;99.90
42201;DHT22;27869;51.442;7.540;2022-12-07T02:42:21;5.00;99.90
42201;DHT22;27869;51.442;7.540;2022-12-07T02:44:50;5.00;99.90
42201;DHT22;27869;51.442;7.540;2022-12-07T02:47:20;5.00;99.90
42201;DHT22;27869;51.442;7.540;2022-12-07T02:49:47;5.00;99.90
42201;DHT22;27869;51.442;7.540;2022-12-07T02:52:16;5.00;99.90
42201;DHT22;27869;51.442;7.540;2022-12-07T02:54:42;5.00;99.90
42201;DHT22;27869;51.442;7.540;2022-12-07T02:57:22;5.00;99.90
42201;DHT22;27869;51.442;7.540;2022-12-07T03:00:01;5.00;99.90
42201;DHT22;27869;51.442;7.540;2022-12-07T03:02:36;5.00;99.90
42201;DHT22;27869;51.442;7.540;2022-12-07T03:05:25;5.00;99.90
42201;DHT22;27869;51.442;7.540;2022-12-07T03:08:01;5.00;99.90
42201;DHT22;27869;51.442;7.540;2022-12-07T03:10:36;5.00;99.90
42201;DHT22;27869;51.442;7.540;2022-12-07T03:13:09;5.00;99.90
42201;DHT22;27869;51.442;7.540;2022-12-07T03:15:43;5.00;99.90
42201;DHT22;27869;51.442;7.540;2022-12-07T03:18:16;5.00;99.90
42201;DHT22;27869;51.442;7.540;2022-12-07T03:20:44;5.00;99.90
42201;DHT22;27869;51.442;7.540;2022-12-07T03:23:12;5.00;99.90
42201;DHT22;27869;51.442;7.540;2022-12-07T03:25:42;5.00;99.90
42201;DHT22;27869;51.442;7.540;2022-12-07T03:28:12;5.00;99.90
42201;DHT22;27869;51.442;7.540;2022-12-07T03:30:47;5.00;99.90
42201;DHT22;27869;51.442;7.540;2022-12-07T03:33:18;5.00;99.90
42201;DHT22;27869;51.442;7.540;2022-12-07T03:35:52;5.00;99.90
42201;DHT22;27869;51.442;7.540;2022-12-07T03:38:23;5.00;99.90
42201;DHT22;27869;51.442;7.540;2022-12-07T03:40:56;5.00;99.90
42201;DHT22;27869;51.442;7.540;2022-12-07T03:43:27;5.00;99.90
42201;DHT22;27869;51.442;7.540;2022-12-07T03:46:00;4.90;99.90
42201;DHT22;27869;51.442;7.540;2022-12-07T03:48:32;4.90;99.90
42201;DHT22;27869;51.442;7.540;2022-12-07T03:51:09;4.90;99.90
42201;DHT22;27869;51.442;7.540;2022-12-07T03:53:40;4.90;99.90
42201;DHT22;27869;51.442;7.540;2022-12-07T03:56:11;4.90;99.90
42201;DHT22;27869;51.442;7.540;2022-12-07T03:58:39;4.90;99.90
42201;DHT22;27869;51.442;7.540;2022-12-07T04:01:08;4.90;99.90
42201;DHT22;27869;51.442;7.540;2022-12-07T04:03:35;4.80;99.90
42201;DHT22;27869;51.442;7.540;2022-12-07T04:06:02;4.90;99.90
42201;DHT22;27869;51.442;7.540;2022-12-07T04:08:29;4.80;99.90
42201;DHT22;27869;51.442;7.540;2022-12-07T04:10:56;4.80;99.90
42201;DHT22;27869;51.442;7.540;2022-12-07T04:13:22;4.80;99.90
42201;DHT22;27869;51.442;7.540;2022-12-07T04:15:49;4.80;99.90
42201;DHT22;27869;51.442;7.540;2022-12-07T04:18:18;4.80;99.90
42201;DHT22;27869;51.442;7.540;2022-12-07T04:20:45;4.70;99.90
42201;DHT22;27869;51.442;7.540;2022-12-07T04:23:12;4.70;99.90
42201;DHT22;27869;51.442;7.540;2022-12-07T04:25:39;4.70;99.90
42201;DHT22;27869;51.442;7.540;2022-12-07T04:28:07;4.70;99.90
42201;DHT22;27869;51.442;7.540;2022-12-07T04:30:33;4.70;99.90
42201;DHT22;27869;51.442;7.540;2022-12-07T04:33:00;4.60;99.90
42201;DHT22;27869;51.442;7.540;2022-12-07T04:35:29;4.60;99.90
42201;DHT22;27869;51.442;7.540;2022-12-07T04:37:55;4.60;99.90
42201;DHT22;27869;51.442;7.540;2022-12-07T04:40:22;4.60;99.90
42201;DHT22;27869;51.442;7.540;2022-12-07T04:42:49;4.60;99.90
42201;DHT22;27869;51.442;7.540;2022-12-07T04:45:16;4.60;99.90
42201;DHT22;27869;51.442;7.540;2022-12-07T04:47:43;4.60;99.90
42201;DHT22;27869;51.442;7.540;2022-12-07T04:50:10;4.60;99.90
42201;DHT22;27869;51.442;7.540;2022-12-07T04:52:38;4.60;99.90
42201;DHT22;27869;51.442;7.540;2022-12-07T04:55:06;4.60;99.90
42201;DHT22;27869;51.442;7.540;2022-12-07T04:57:33;4.60;99.90
42201;DHT22;27869;51.442;7.540;2022-12-07T05:00:00;4.60;99.90
42201;DHT22;27869;51.442;7.540;2022-12-07T05:02:26;4.60;99.90
42201;DHT22;27869;51.442;7.540;2022-12-07T05:04:53;4.60;99.90
42201;DHT22;27869;51.442;7.540;2022-12-07T05:07:20;4.60;99.90
42201;DHT22;27869;51.442;7.540;2022-12-07T05:09:48;4.60;99.90
42201;DHT22;27869;51.442;7.540;2022-12-07T05:12:15;4.60;99.90
42201;DHT22;27869;51.442;7.540;2022-12-07T05:14:42;4.50;99.90
42201;DHT22;27869;51.442;7.540;2022-12-07T05:17:09;4.60;99.90
42201;DHT22;27869;51.442;7.540;2022-12-07T05:19:37;4.60;99.90
42201;DHT22;27869;51.442;7.540;2022-12-07T05:22:03;4.60;99.90
42201;DHT22;27869;51.442;7.540;2022-12-07T05:24:30;4.60;99.90
42201;DHT22;27869;51.442;7.540;2022-12-07T05:26:58;4.60;99.90
42201;DHT22;27869;51.442;7.540;2022-12-07T05:29:25;4.50;99.90
42201;DHT22;27869;51.442;7.540;2022-12-07T05:31:52;4.60;99.90
42201;DHT22;27869;51.442;7.540;2022-12-07T05:34:19;4.60;99.90
42201;DHT22;27869;51.442;7.540;2022-12-07T05:36:46;4.60;99.90
42201;DHT22;27869;51.442;7.540;2022-12-07T05:39:13;4.60;99.90
42201;DHT22;27869;51.442;7.540;2022-12-07T05:41:40;4.60;99.90
42201;DHT22;27869;51.442;7.540;2022-12-07T05:44:27;4.60;99.90
42201;DHT22;27869;51.442;7.540;2022-12-07T05:46:54;4.60;99.90
42201;DHT22;27869;51.442;7.540;2022-12-07T05:49:21;4.60;99.90
42201;DHT22;27869;51.442;7.540;2022-12-07T05:51:48;4.50;99.90
42201;DHT22;27869;51.442;7.540;2022-12-07T05:54:15;4.50;99.90
42201;DHT22;27869;51.442;7.540;2022-12-07T05:56:42;4.50;99.90
42201;DHT22;27869;51.442;7.540;2022-12-07T05:59:09;4.50;99.90
42201;DHT22;27869;51.442;7.540;2022-12-07T06:01:53;4.50;99.90
42201;DHT22;27869;51.442;7.540;2022-12-07T06:04:21;4.50;99.90
42201;DHT22;27869;51.442;7.540;2022-12-07T06:06:48;4.50;99.90
42201;DHT22;27869;51.442;7.540;2022-12-07T06:09:16;4.50;99.90
42201;DHT22;27869;51.442;7.540;2022-12-07T06:11:45;4.50;99.90
42201;DHT22;27869;51.442;7.540;2022-12-07T06:14:30;4.50;99.90
42201;DHT22;27869;51.442;7.540;2022-12-07T06:16:58;4.50;99.90
42201;DHT22;27869;51.442;7.540;2022-12-07T06:19:25;4.50;99.90
42201;DHT22;27869;51.442;7.540;2022-12-07T06:21:53;4.50;99.90
42201;DHT22;27869;51.442;7.540;2022-12-07T06:24:20;4.50;99.90
42201;DHT22;27869;51.442;7.540;2022-12-07T06:26:47;4.50;99.90
42201;DHT22;27869;51.442;7.540;2022-12-07T06:29:14;4.50;99.90
42201;DHT22;27869;51.442;7.540;2022-12-07T06:31:41;4.50;99.90
42201;DHT22;27869;51.442;7.540;2022-12-07T06:34:12;4.50;99.90
42201;DHT22;27869;51.442;7.540;2022-12-07T06:36:39;4.50;99.90
42201;DHT22;27869;51.442;7.540;2022-12-07T06:39:07;4.50;99.90
42201;DHT22;27869;51.442;7.540;2022-12-07T06:41:35;4.50;99.90
42201;DHT22;27869;51.442;7.540;2022-12-07T06:44:02;4.50;99.90
42201;DHT22;27869;51.442;7.540;2022-12-07T06:46:29;4.50;99.90
42201;DHT22;27869;51.442;7.540;2022-12-07T06:48:56;4.50;99.90
42201;DHT22;27869;51.442;7.540;2022-12-07T06:51:24;4.50;99.90
42201;DHT22;27869;51.442;7.540;2022-12-07T06:53:51;4.50;99.90
42201;DHT22;27869;51.442;7.540;2022-12-07T06:56:18;4.50;99.90
42201;DHT22;27869;51.442;7.540;2022-12-07T06:58:45;4.50;99.90
42201;DHT22;27869;51.442;7.540;2022-12-07T07:01:13;4.50;99.90
42201;DHT22;27869;51.442;7.540;2022-12-07T07:03:41;4.40;99.90
42201;DHT22;27869;51.442;7.540;2022-12-07T07:06:09;4.40;99.90
42201;DHT22;27869;51.442;7.540;2022-12-07T07:08:38;4.40;99.90
42201;DHT22;27869;51.442;7.540;2022-12-07T07:11:06;4.40;99.90
42201;DHT22;27869;51.442;7.540;2022-12-07T07:13:33;4.40;99.90
42201;DHT22;27869;51.442;7.540;2022-12-07T07:16:01;4.40;99.90
42201;DHT22;27869;51.442;7.540;2022-12-07T07:18:28;4.30;99.90
42201;DHT22;27869;51.442;7.540;2022-12-07T07:20:55;4.30;99.90
42201;DHT22;27869;51.442;7.540;2022-12-07T07:23:22;4.30;99.90
42201;DHT22;27869;51.442;7.540;2022-12-07T07:25:51;4.30;99.90
42201;DHT22;27869;51.442;7.540;2022-12-07T07:28:18;4.30;99.90
42201;DHT22;27869;51.442;7.540;2022-12-07T07:30:45;4.30;99.90
42201;DHT22;27869;51.442;7.540;2022-12-07T07:33:12;4.30;99.90
42201;DHT22;27869;51.442;7.540;2022-12-07T07:35:39;4.30;99.90
42201;DHT22;27869;51.442;7.540;2022-12-07T07:38:06;4.30;99.90
42201;DHT22;27869;51.442;7.540;2022-12-07T07:40:34;4.30;99.90
42201;DHT22;27869;51.442;7.540;2022-12-07T07:43:02;4.30;99.90
42201;DHT22;27869;51.442;7.540;2022-12-07T07:45:29;4.30;99.90
42201;DHT22;27869;51.442;7.540;2022-12-07T07:47:56;4.30;99.90
42201;DHT22;27869;51.442;7.540;2022-12-07T07:50:23;4.30;99.90
42201;DHT22;27869;51.442;7.540;2022-12-07T07:52:50;4.30;99.90
42201;DHT22;27869;51.442;7.540;2022-12-07T07:55:17;4.30;99.90
42201;DHT22;27869;51.442;7.540;2022-12-07T07:57:44;4.30;99.90
42201;DHT22;27869;51.442;7.540;2022-12-07T08:00:15;4.30;99.90
42201;DHT22;27869;51.442;7.540;2022-12-07T08:02:43;4.30;99.90
42201;DHT22;27869;51.442;7.540;2022-12-07T08:05:11;4.20;99.90
42201;DHT22;27869;51.442;7.540;2022-12-07T08:07:38;4.20;99.90
42201;DHT22;27869;51.442;7.540;2022-12-07T08:10:07;4.20;99.90
42201;DHT22;27869;51.442;7.540;2022-12-07T08:12:36;4.20;99.90
42201;DHT22;27869;51.442;7.540;2022-12-07T08:15:26;4.20;99.90
42201;DHT22;27869;51.442;7.540;2022-12-07T08:17:53;4.20;99.90
42201;DHT22;27869;51.442;7.540;2022-12-07T08:20:20;4.20;99.90
42201;DHT22;27869;51.442;7.540;2022-12-07T08:22:47;4.20;99.90
42201;DHT22;27869;51.442;7.540;2022-12-07T08:25:14;4.20;99.90
42201;DHT22;27869;51.442;7.540;2022-12-07T08:27:41;4.20;99.90
42201;DHT22;27869;51.442;7.540;2022-12-07T08:30:08;4.20;99.90
42201;DHT22;27869;51.442;7.540;2022-12-07T08:32:37;4.20;99.90
42201;DHT22;27869;51.442;7.540;2022-12-07T08:35:04;4.20;99.90
42201;DHT22;27869;51.442;7.540;2022-12-07T08:37:32;4.20;99.90
42201;DHT22;27869;51.442;7.540;2022-12-07T08:39:59;4.20;99.90
42201;DHT22;27869;51.442;7.540;2022-12-07T08:42:26;4.20;99.90
42201;DHT22;27869;51.442;7.540;2022-12-07T08:44:55;4.20;99.90
42201;DHT22;27869;51.442;7.540;2022-12-07T08:47:23;4.20;99.90
42201;DHT22;27869;51.442;7.540;2022-12-07T08:49:53;4.20;99.90
42201;DHT22;27869;51.442;7.540;2022-12-07T08:52:21;4.20;99.90
42201;DHT22;27869;51.442;7.540;2022-12-07T08:54:48;4.20;99.90
42201;DHT22;27869;51.442;7.540;2022-12-07T08:57:15;4.30;99.90
42201;DHT22;27869;51.442;7.540;2022-12-07T08:59:42;4.30;99.90
42201;DHT22;27869;51.442;7.540;2022-12-07T09:02:09;4.30;99.90
42201;DHT22;27869;51.442;7.540;2022-12-07T09:04:36;4.30;99.90
42201;DHT22;27869;51.442;7.540;2022-12-07T09:07:05;4.30;99.90
42201;DHT22;27869;51.442;7.540;2022-12-07T09:09:32;4.30;99.90
42201;DHT22;27869;51.442;7.540;2022-12-07T09:11:59;4.40;99.90
42201;DHT22;27869;51.442;7.540;2022-12-07T09:14:25;4.40;99.90
42201;DHT22;27869;51.442;7.540;2022-12-07T09:16:52;4.40;99.90
42201;DHT22;27869;51.442;7.540;2022-12-07T09:19:19;4.50;99.90
42201;DHT22;27869;51.442;7.540;2022-12-07T09:21:46;4.50;99.90
42201;DHT22;27869;51.442;7.540;2022-12-07T09:24:15;4.50;99.90
42201;DHT22;27869;51.442;7.540;2022-12-07T09:26:41;4.50;99.90
42201;DHT22;27869;51.442;7.540;2022-12-07T09:29:09;4.50;99.90
42201;DHT22;27869;51.442;7.540;2022-12-07T09:31:37;4.50;99.90
42201;DHT22;27869;51.442;7.540;2022-12-07T09:34:04;4.60;99.90
42201;DHT22;27869;51.442;7.540;2022-12-07T09:36:31;4.50;99.90
42201;DHT22;27869;51.442;7.540;2022-12-07T09:38:58;4.50;99.90
42201;DHT22;27869;51.442;7.540;2022-12-07T09:41:27;4.50;99.90
42201;DHT22;27869;51.442;7.540;2022-12-07T09:44:03;4.50;99.90
42201;DHT22;27869;51.442;7.540;2022-12-07T09:46:35;4.60;99.90
42201;DHT22;27869;51.442;7.540;2022-12-07T09:49:03;4.50;99.90
42201;DHT22;27869;51.442;7.540;2022-12-07T09:51:31;4.60;99.90
42201;DHT22;27869;51.442;7.540;2022-12-07T09:53:58;4.60;99.90
42201;DHT22;27869;51.442;7.540;2022-12-07T09:56:29;4.60;99.90
42201;DHT22;27869;51.442;7.540;2022-12-07T09:58:59;4.70;99.90
42201;DHT22;27869;51.442;7.540;2022-12-07T10:01:29;4.60;99.90
42201;DHT22;27869;51.442;7.540;2022-12-07T10:04:06;4.70;99.90
42201;DHT22;27869;51.442;7.540;2022-12-07T10:06:36;4.70;99.90
42201;DHT22;27869;51.442;7.540;2022-12-07T10:09:09;4.70;99.90
42201;DHT22;27869;51.442;7.540;2022-12-07T10:11:58;4.80;99.90
42201;DHT22;27869;51.442;7.540;2022-12-07T10:14:28;4.80;99.90
42201;DHT22;27869;51.442;7.540;2022-12-07T10:16:56;4.80;99.90
42201;DHT22;27869;51.442;7.540;2022-12-07T10:19:25;4.80;99.90
42201;DHT22;27869;51.442;7.540;2022-12-07T10:22:07;4.80;99.90
42201;DHT22;27869;51.442;7.540;2022-12-07T10:24:35;4.80;99.90
42201;DHT22;27869;51.442;7.540;2022-12-07T10:27:18;4.80;99.90
42201;DHT22;27869;51.442;7.540;2022-12-07T10:29:48;4.80;99.90
42201;DHT22;27869;51.442;7.540;2022-12-07T10:32:31;4.80;99.90
42201;DHT22;27869;51.442;7.540;2022-12-07T10:35:19;4.80;99.90
42201;DHT22;27869;51.442;7.540;2022-12-07T10:37:46;4.80;99.90
42201;DHT22;27869;51.442;7.540;2022-12-07T10:40:29;4.80;99.90
42201;DHT22;27869;51.442;7.540;2022-12-07T10:43:18;4.90;99.90
42201;DHT22;27869;51.442;7.540;2022-12-07T10:46:13;4.90;99.90
42201;DHT22;27869;51.442;7.540;2022-12-07T10:48:53;4.90;99.90
42201;DHT22;27869;51.442;7.540;2022-12-07T10:51:27;4.90;99.90
42201;DHT22;27869;51.442;7.540;2022-12-07T10:54:03;4.90;99.90
42201;DHT22;27869;51.442;7.540;2022-12-07T10:56:46;4.90;99.90
42201;DHT22;27869;51.442;7.540;2022-12-07T10:59:36;4.90;99.90
42201;DHT22;27869;51.442;7.540;2022-12-07T11:02:37;4.90;99.90
42201;DHT22;27869;51.442;7.540;2022-12-07T11:05:16;4.90;99.90
42201;DHT22;27869;51.442;7.540;2022-12-07T11:07:55;5.00;99.90
42201;DHT22;27869;51.442;7.540;2022-12-07T11:10:30;5.00;99.90
42201;DHT22;27869;51.442;7.540;2022-12-07T11:13:18;5.00;99.90
42201;DHT22;27869;51.442;7.540;2022-12-07T11:16:02;5.00;99.90
42201;DHT22;27869;51.442;7.540;2022-12-07T11:18:39;5.00;99.90
42201;DHT22;27869;51.442;7.540;2022-12-07T11:21:10;5.00;99.90
42201;DHT22;27869;51.442;7.540;2022-12-07T11:23:46;5.10;99.90
42201;DHT22;27869;51.442;7.540;2022-12-07T11:26:25;5.10;99.90
42201;DHT22;27869;51.442;7.540;2022-12-07T11:29:21;5.10;99.90
42201;DHT22;27869;51.442;7.540;2022-12-07T11:32:02;5.20;99.90
42201;DHT22;27869;51.442;7.540;2022-12-07T11:34:38;5.20;99.90
42201;DHT22;27869;51.442;7.540;2022-12-07T11:37:10;5.20;99.90
42201;DHT22;27869;51.442;7.540;2022-12-07T11:39:42;5.20;99.90
42201;DHT22;27869;51.442;7.540;2022-12-07T11:42:14;5.20;99.90
42201;DHT22;27869;51.442;7.540;2022-12-07T11:44:49;5.20;99.90
42201;DHT22;27869;51.442;7.540;2022-12-07T11:47:23;5.30;99.90
42201;DHT22;27869;51.442;7.540;2022-12-07T11:49:55;5.30;99.90
42201;DHT22;27869;51.442;7.540;2022-12-07T11:52:27;5.40;99.90
42201;DHT22;27869;51.442;7.540;2022-12-07T11:54:58;5.40;99.90
42201;DHT22;27869;51.442;7.540;2022-12-07T11:57:33;5.40;99.90
42201;DHT22;27869;51.442;7.540;2022-12-07T12:00:05;5.40;99.90
42201;DHT22;27869;51.442;7.540;2022-12-07T12:02:38;5.40;99.90
42201;DHT22;27869;51.442;7.540;2022-12-07T12:05:15;5.40;99.90
42201;DHT22;27869;51.442;7.540;2022-12-07T12:07:44;5.40;99.90
42201;DHT22;27869;51.442;7.540;2022-12-07T12:10:19;5.40;99.90
42201;DHT22;27869;51.442;7.540;2022-12-07T12:15:51;5.50;99.90
42201;DHT22;27869;51.442;7.540;2022-12-07T12:18:42;5.50;99.90
42201;DHT22;27869;51.442;7.540;2022-12-07T12:21:14;5.50;99.90
42201;DHT22;27869;51.442;7.540;2022-12-07T12:23:45;5.50;99.90
42201;DHT22;27869;51.442;7.540;2022-12-07T12:26:17;5.50;99.90
42201;DHT22;27869;51.442;7.540;2022-12-07T12:28:52;5.50;99.90
42201;DHT22;27869;51.442;7.540;2022-12-07T12:31:33;5.50;99.90
42201;DHT22;27869;51.442;7.540;2022-12-07T12:34:10;5.50;99.90
42201;DHT22;27869;51.442;7.540;2022-12-07T12:36:51;5.50;99.90
42201;DHT22;27869;51.442;7.540;2022-12-07T12:39:18;5.60;99.90
42201;DHT22;27869;51.442;7.540;2022-12-07T12:41:57;5.50;99.90
42201;DHT22;27869;51.442;7.540;2022-12-07T12:47:42;5.60;99.90
42201;DHT22;27869;51.442;7.540;2022-12-07T12:50:22;5.60;99.90
42201;DHT22;27869;51.442;7.540;2022-12-07T12:53:02;5.60;99.90
42201;DHT22;27869;51.442;7.540;2022-12-07T12:55:52;5.70;99.90
42201;DHT22;27869;51.442;7.540;2022-12-07T12:58:36;5.70;99.90
42201;DHT22;27869;51.442;7.540;2022-12-07T13:01:41;5.70;99.90
42201;DHT22;27869;51.442;7.540;2022-12-07T13:04:34;5.70;99.90
42201;DHT22;27869;51.442;7.540;2022-12-07T13:07:03;5.70;99.90
42201;DHT22;27869;51.442;7.540;2022-12-07T13:09:33;5.70;99.90
42201;DHT22;27869;51.442;7.540;2022-12-07T13:12:05;5.80;99.90
42201;DHT22;27869;51.442;7.540;2022-12-07T13:14:43;5.80;99.90
42201;DHT22;27869;51.442;7.540;2022-12-07T13:23:31;5.70;99.90
42201;DHT22;27869;51.442;7.540;2022-12-07T13:26:13;5.80;99.90
42201;DHT22;27869;51.442;7.540;2022-12-07T13:28:42;5.80;99.90
42201;DHT22;27869;51.442;7.540;2022-12-07T13:31:24;5.80;99.90
42201;DHT22;27869;51.442;7.540;2022-12-07T13:33:53;5.70;99.90
42201;DHT22;27869;51.442;7.540;2022-12-07T13:36:22;5.80;99.90
42201;DHT22;27869;51.442;7.540;2022-12-07T13:39:00;5.80;99.90
42201;DHT22;27869;51.442;7.540;2022-12-07T13:41:37;5.80;99.90
42201;DHT22;27869;51.442;7.540;2022-12-07T13:44:11;5.80;99.90
42201;DHT22;27869;51.442;7.540;2022-12-07T13:46:47;5.80;99.90
42201;DHT22;27869;51.442;7.540;2022-12-07T13:49:18;5.80;99.90
42201;DHT22;27869;51.442;7.540;2022-12-07T13:51:46;5.70;99.90
42201;DHT22;27869;51.442;7.540;2022-12-07T13:54:15;5.80;99.90
42201;DHT22;27869;51.442;7.540;2022-12-07T13:56:42;5.70;99.90
42201;DHT22;27869;51.442;7.540;2022-12-07T13:59:18;5.70;99.90
42201;DHT22;27869;51.442;7.540;2022-12-07T14:01:46;5.70;99.90
42201;DHT22;27869;51.442;7.540;2022-12-07T14:04:33;5.70;99.90
42201;DHT22;27869;51.442;7.540;2022-12-07T14:07:01;5.80;99.90
42201;DHT22;27869;51.442;7.540;2022-12-07T14:09:53;5.80;99.90
42201;DHT22;27869;51.442;7.540;2022-12-07T14:12:21;5.70;99.90
42201;DHT22;27869;51.442;7.540;2022-12-07T14:14:48;5.80;99.90
42201;DHT22;27869;51.442;7.540;2022-12-07T14:17:17;5.70;99.90
42201;DHT22;27869;51.442;7.540;2022-12-07T14:19:47;5.70;99.90
42201;DHT22;27869;51.442;7.540;2022-12-07T14:22:31;5.70;99.90
42201;DHT22;27869;51.442;7.540;2022-12-07T14:25:19;5.70;99.90
42201;DHT22;27869;51.442;7.540;2022-12-07T14:27:51;5.70;99.90
42201;DHT22;27869;51.442;7.540;2022-12-07T14:30:22;5.70;99.90
42201;DHT22;27869;51.442;7.540;2022-12-07T14:32:52;5.70;99.90
42201;DHT22;27869;51.442;7.540;2022-12-07T14:35:20;5.70;99.90
42201;DHT22;27869;51.442;7.540;2022-12-07T14:37:48;5.70;99.90
42201;DHT22;27869;51.442;7.540;2022-12-07T14:40:18;5.70;99.90
42201;DHT22;27869;51.442;7.540;2022-12-07T14:42:48;5.60;99.90
42201;DHT22;27869;51.442;7.540;2022-12-07T14:45:18;5.60;99.90
42201;DHT22;27869;51.442;7.540;2022-12-07T14:47:45;5.60;99.90
42201;DHT22;27869;51.442;7.540;2022-12-07T14:50:14;5.50;99.90
42201;DHT22;27869;51.442;7.540;2022-12-07T14:52:42;5.50;99.90
42201;DHT22;27869;51.442;7.540;2022-12-07T14:55:14;5.40;99.90
42201;DHT22;27869;51.442;7.540;2022-12-07T14:57:44;5.40;99.90
42201;DHT22;27869;51.442;7.540;2022-12-07T15:00:15;5.30;99.90
42201;DHT22;27869;51.442;7.540;2022-12-07T15:02:42;5.30;99.90
42201;DHT22;27869;51.442;7.540;2022-12-07T15:05:09;5.20;99.90
42201;DHT22;27869;51.442;7.540;2022-12-07T15:07:36;5.20;99.90
42201;DHT22;27869;51.442;7.540;2022-12-07T15:10:04;5.10;99.90
42201;DHT22;27869;51.442;7.540;2022-12-07T15:12:32;5.10;99.90
42201;DHT22;27869;51.442;7.540;2022-12-07T15:15:00;5.10;99.90
42201;DHT22;27869;51.442;7.540;2022-12-07T15:17:28;5.00;99.90
42201;DHT22;27869;51.442;7.540;2022-12-07T15:19:54;5.00;99.90
42201;DHT22;27869;51.442;7.540;2022-12-07T15:22:21;5.00;99.90
42201;DHT22;27869;51.442;7.540;2022-12-07T15:24:48;5.00;99.90
42201;DHT22;27869;51.442;7.540;2022-12-07T15:27:15;4.90;99.90
42201;DHT22;27869;51.442;7.540;2022-12-07T15:29:42;4.90;99.90
42201;DHT22;27869;51.442;7.540;2022-12-07T15:32:10;4.80;99.90
42201;DHT22;27869;51.442;7.540;2022-12-07T15:34:37;4.80;99.90
42201;DHT22;27869;51.442;7.540;2022-12-07T15:37:05;4.70;99.90
42201;DHT22;27869;51.442;7.540;2022-12-07T15:39:32;4.70;99.90
42201;DHT22;27869;51.442;7.540;2022-12-07T15:41:59;4.70;99.90
42201;DHT22;27869;51.442;7.540;2022-12-07T15:44:26;4.60;99.90
42201;DHT22;27869;51.442;7.540;2022-12-07T15:47:11;4.60;99.90
42201;DHT22;27869;51.442;7.540;2022-12-07T15:49:38;4.60;99.90
42201;DHT22;27869;51.442;7.540;2022-12-07T15:52:05;4.60;99.90
42201;DHT22;27869;51.442;7.540;2022-12-07T15:54:32;4.60;99.90
42201;DHT22;27869;51.442;7.540;2022-12-07T15:56:59;4.50;99.90
42201;DHT22;27869;51.442;7.540;2022-12-07T15:59:27;4.50;99.90
42201;DHT22;27869;51.442;7.540;2022-12-07T16:01:54;4.40;99.90
42201;DHT22;27869;51.442;7.540;2022-12-07T16:04:23;4.40;99.90
42201;DHT22;27869;51.442;7.540;2022-12-07T16:06:50;4.40;99.90
42201;DHT22;27869;51.442;7.540;2022-12-07T16:09:17;4.40;99.90
42201;DHT22;27869;51.442;7.540;2022-12-07T16:11:44;4.40;99.90
42201;DHT22;27869;51.442;7.540;2022-12-07T16:14:11;4.30;99.90
42201;DHT22;27869;51.442;7.540;2022-12-07T16:16:38;4.40;99.90
42201;DHT22;27869;51.442;7.540;2022-12-07T16:19:05;4.30;99.90
42201;DHT22;27869;51.442;7.540;2022-12-07T16:21:35;4.30;99.90